LEIB Airport Information

Runway Information
Runway 06 Length 9186 ft width 148 ft Elevation 13 ft Threshold N/A Heading 62
Runway 24 Length 9186 ft Width 148 ft Elevation 16 ft Threshold N/A Heading 242
Airport Frequencies
Type APP Name PALMA APP Frequency 118.125 MHZ
Type APP Name APP Frequency 119.8 MHZ
Type ATIS Name ATIS Frequency 117.8 MHZ
Type GND Name GND Frequency 121.8 MHZ
Type TWR Name TWR Frequency 118.5 MHZ
Airport Navaids
Type VOR-DME Name Ibiza Frequency 117800 KHZ
Type NDB Name Ibiza Frequency 394 KHZ
Airport Weather Information & NOTAM
ADDS - METARS form results

(1651 UTC 08 December 2022)
Data provider http://aviationweather.gov/metar/data/
 
METAR text: LEIB 081630Z 18006KT 9999 FEW012 17/14 Q1004 NOSIG
Conditions at: LEIB (IBIZA/ES CODOLA , ES) observed 1630 UTC 08 December 2022
Temperature: 17.0°C (63°F)
Dewpoint: 14.0°C (57°F) [RH = 82%]
Pressure (altimeter): 29.65 inches Hg (1004.0 mb)
Winds: from the S (180 degrees) at 7 MPH (6 knots; 3.1 m/s)
Visibility: 6 or more miles (10+ km)
Ceiling: at least 12,000 feet AGL
Clouds: few clouds at 1200 feet AGL
Weather: no significant weather observed at this time

METAR text: LEIB 081600Z 18006KT 9999 FEW013 17/14 Q1005 NOSIG
Conditions at: LEIB (IBIZA/ES CODOLA , ES) observed 1600 UTC 08 December 2022
Temperature: 17.0°C (63°F)
Dewpoint: 14.0°C (57°F) [RH = 82%]
Pressure (altimeter): 29.68 inches Hg (1005.0 mb)
Winds: from the S (180 degrees) at 7 MPH (6 knots; 3.1 m/s)
Visibility: 6 or more miles (10+ km)
Ceiling: at least 12,000 feet AGL
Clouds: few clouds at 1300 feet AGL
Weather: no significant weather observed at this time

Forecast for: LEIB (IBIZA/ES CODOLA , ES)
Text: TAF LEIB 081400Z 0815/0915 18010KT 9999 SCT015 TX19/0912Z TN13/0906Z
Forecast period: 1500 to 2200 UTC 08 December 2022
Forecast type: FROM: standard forecast or significant change
Winds: from the S (180 degrees) at 12 MPH (10 knots; 5.1 m/s)
Visibility: 6 or more miles (10+ km)
Ceiling: at least 12,000 feet AGL
Clouds: scattered clouds at 1500 feet AGL
Weather: no significant weather forecast for this period
Text: BECMG 0822/0824 24012KT
Forecast period: 2200 UTC 08 December 2022 to 1500 UTC 09 December 2022
Forecast type: BECOMING: Conditions expected to become as follows by 0000 UTC 09 December 2022
Winds: from the WSW (240 degrees) at 14 MPH (12 knots; 6.2 m/s)
Visibility: 6 or more miles (10+ km)
Ceiling: at least 12,000 feet AGL
Clouds: scattered clouds at 1500 feet AGL
Weather: no significant weather forecast for this period
Text: PROB30
Forecast period: 0600 to 1200 UTC 09 December 2022
Forecast type: TEMPORARY: The following changes expected for less than half the time period
Visibility: missing
Ceiling: 1800 feet AGL
Clouds: broken clouds at 1800 feet AGL
Weather: RA  (moderate rain)